sensor_id;sensor_type;location;lat;lon;timestamp;temperature;humidity
44182;DHT22;30436;48.888;9.202;2022-08-01T00:00:25;25.70;62.20
44182;DHT22;30436;48.888;9.202;2022-08-01T00:02:50;25.70;61.90
44182;DHT22;30436;48.888;9.202;2022-08-01T00:05:16;25.70;62.00
44182;DHT22;30436;48.888;9.202;2022-08-01T00:07:43;25.70;62.50
44182;DHT22;30436;48.888;9.202;2022-08-01T00:10:11;25.70;62.70
44182;DHT22;30436;48.888;9.202;2022-08-01T00:12:37;25.70;62.60
44182;DHT22;30436;48.888;9.202;2022-08-01T00:15:05;25.60;61.90
44182;DHT22;30436;48.888;9.202;2022-08-01T00:17:31;25.60;64.20
44182;DHT22;30436;48.888;9.202;2022-08-01T00:19:56;25.70;63.20
44182;DHT22;30436;48.888;9.202;2022-08-01T00:22:22;25.60;62.80
44182;DHT22;30436;48.888;9.202;2022-08-01T00:24:48;25.60;63.50
44182;DHT22;30436;48.888;9.202;2022-08-01T00:27:13;25.60;63.00
44182;DHT22;30436;48.888;9.202;2022-08-01T00:29:39;25.60;63.30
44182;DHT22;30436;48.888;9.202;2022-08-01T00:32:05;25.50;62.80
44182;DHT22;30436;48.888;9.202;2022-08-01T00:34:30;25.50;63.50
44182;DHT22;30436;48.888;9.202;2022-08-01T00:36:56;25.40;64.40
44182;DHT22;30436;48.888;9.202;2022-08-01T00:39:22;25.50;64.60
44182;DHT22;30436;48.888;9.202;2022-08-01T00:41:47;25.50;63.30
44182;DHT22;30436;48.888;9.202;2022-08-01T00:44:13;25.50;64.40
44182;DHT22;30436;48.888;9.202;2022-08-01T00:46:39;25.50;64.60
44182;DHT22;30436;48.888;9.202;2022-08-01T00:49:04;25.40;63.40
44182;DHT22;30436;48.888;9.202;2022-08-01T00:51:30;25.40;64.30
44182;DHT22;30436;48.888;9.202;2022-08-01T00:53:56;25.40;65.60
44182;DHT22;30436;48.888;9.202;2022-08-01T00:56:24;25.30;63.90
44182;DHT22;30436;48.888;9.202;2022-08-01T00:58:50;25.40;64.40
44182;DHT22;30436;48.888;9.202;2022-08-01T01:01:16;25.30;65.40
44182;DHT22;30436;48.888;9.202;2022-08-01T01:03:43;25.30;64.50
44182;DHT22;30436;48.888;9.202;2022-08-01T01:17:57;25.00;65.30
44182;DHT22;30436;48.888;9.202;2022-08-01T01:20:50;25.00;65.80
44182;DHT22;30436;48.888;9.202;2022-08-01T01:23:40;25.00;66.30
44182;DHT22;30436;48.888;9.202;2022-08-01T01:31:40;24.90;67.60
44182;DHT22;30436;48.888;9.202;2022-08-01T01:34:07;25.00;68.10
44182;DHT22;30436;48.888;9.202;2022-08-01T01:36:35;25.00;67.10
44182;DHT22;30436;48.888;9.202;2022-08-01T01:39:02;25.00;69.20
44182;DHT22;30436;48.888;9.202;2022-08-01T01:41:28;25.00;68.00
44182;DHT22;30436;48.888;9.202;2022-08-01T01:43:55;24.90;68.00
44182;DHT22;30436;48.888;9.202;2022-08-01T01:46:24;24.80;67.30
44182;DHT22;30436;48.888;9.202;2022-08-01T01:48:53;24.90;68.00
44182;DHT22;30436;48.888;9.202;2022-08-01T01:51:22;24.80;68.80
44182;DHT22;30436;48.888;9.202;2022-08-01T01:53:52;24.80;68.10
44182;DHT22;30436;48.888;9.202;2022-08-01T01:56:19;24.90;69.50
44182;DHT22;30436;48.888;9.202;2022-08-01T01:58:48;24.90;70.10
44182;DHT22;30436;48.888;9.202;2022-08-01T02:01:16;24.90;69.50
44182;DHT22;30436;48.888;9.202;2022-08-01T02:03:43;25.00;70.10
44182;DHT22;30436;48.888;9.202;2022-08-01T02:06:12;24.90;70.90
44182;DHT22;30436;48.888;9.202;2022-08-01T02:08:40;24.70;69.70
44182;DHT22;30436;48.888;9.202;2022-08-01T02:11:07;24.80;71.70
44182;DHT22;30436;48.888;9.202;2022-08-01T02:13:59;24.70;72.30
44182;DHT22;30436;48.888;9.202;2022-08-01T02:16:29;24.70;70.40
44182;DHT22;30436;48.888;9.202;2022-08-01T02:18:55;24.60;72.20
44182;DHT22;30436;48.888;9.202;2022-08-01T02:21:37;24.70;70.70
44182;DHT22;30436;48.888;9.202;2022-08-01T02:24:36;24.70;71.60
44182;DHT22;30436;48.888;9.202;2022-08-01T02:27:12;24.60;71.50
44182;DHT22;30436;48.888;9.202;2022-08-01T02:29:43;24.60;71.50
44182;DHT22;30436;48.888;9.202;2022-08-01T02:35:00;24.60;71.30
44182;DHT22;30436;48.888;9.202;2022-08-01T02:37:27;24.60;71.70
44182;DHT22;30436;48.888;9.202;2022-08-01T02:39:54;24.50;70.70
44182;DHT22;30436;48.888;9.202;2022-08-01T02:42:23;24.50;72.80
44182;DHT22;30436;48.888;9.202;2022-08-01T02:44:52;24.40;72.90
44182;DHT22;30436;48.888;9.202;2022-08-01T02:47:20;24.40;73.70
44182;DHT22;30436;48.888;9.202;2022-08-01T02:49:49;24.50;71.60
44182;DHT22;30436;48.888;9.202;2022-08-01T02:52:17;24.50;73.40
44182;DHT22;30436;48.888;9.202;2022-08-01T02:54:49;24.40;73.60
44182;DHT22;30436;48.888;9.202;2022-08-01T02:57:17;24.50;72.50
44182;DHT22;30436;48.888;9.202;2022-08-01T02:59:44;24.40;72.70
44182;DHT22;30436;48.888;9.202;2022-08-01T03:02:11;24.20;73.10
44182;DHT22;30436;48.888;9.202;2022-08-01T03:04:39;24.20;74.60
44182;DHT22;30436;48.888;9.202;2022-08-01T03:07:07;24.10;73.70
44182;DHT22;30436;48.888;9.202;2022-08-01T03:09:36;24.20;74.50
44182;DHT22;30436;48.888;9.202;2022-08-01T03:12:06;24.10;74.80
44182;DHT22;30436;48.888;9.202;2022-08-01T03:14:36;24.20;76.90
44182;DHT22;30436;48.888;9.202;2022-08-01T03:17:04;24.10;74.70
44182;DHT22;30436;48.888;9.202;2022-08-01T03:19:30;23.90;75.30
44182;DHT22;30436;48.888;9.202;2022-08-01T03:21:57;23.80;76.10
44182;DHT22;30436;48.888;9.202;2022-08-01T03:24:29;23.80;75.40
44182;DHT22;30436;48.888;9.202;2022-08-01T03:26:56;23.70;76.50
44182;DHT22;30436;48.888;9.202;2022-08-01T03:29:26;23.90;77.60
44182;DHT22;30436;48.888;9.202;2022-08-01T03:31:52;23.80;77.00
44182;DHT22;30436;48.888;9.202;2022-08-01T03:34:18;23.60;77.80
44182;DHT22;30436;48.888;9.202;2022-08-01T03:36:55;23.80;77.20
44182;DHT22;30436;48.888;9.202;2022-08-01T03:39:29;23.60;78.20
44182;DHT22;30436;48.888;9.202;2022-08-01T03:41:59;23.50;77.80
44182;DHT22;30436;48.888;9.202;2022-08-01T03:44:27;23.50;79.20
44182;DHT22;30436;48.888;9.202;2022-08-01T03:47:07;23.50;80.40
44182;DHT22;30436;48.888;9.202;2022-08-01T03:49:41;23.50;78.30
44182;DHT22;30436;48.888;9.202;2022-08-01T03:52:08;23.50;79.00
44182;DHT22;30436;48.888;9.202;2022-08-01T03:54:42;23.40;78.30
44182;DHT22;30436;48.888;9.202;2022-08-01T03:57:10;23.40;80.80
44182;DHT22;30436;48.888;9.202;2022-08-01T03:59:37;23.50;79.70
44182;DHT22;30436;48.888;9.202;2022-08-01T04:02:04;23.50;81.10
44182;DHT22;30436;48.888;9.202;2022-08-01T04:04:30;23.50;80.00
44182;DHT22;30436;48.888;9.202;2022-08-01T04:06:56;23.60;81.60
44182;DHT22;30436;48.888;9.202;2022-08-01T04:09:21;23.60;81.10
44182;DHT22;30436;48.888;9.202;2022-08-01T04:11:47;23.60;79.00
44182;DHT22;30436;48.888;9.202;2022-08-01T04:14:14;23.60;80.00
44182;DHT22;30436;48.888;9.202;2022-08-01T04:16:39;23.60;80.40
44182;DHT22;30436;48.888;9.202;2022-08-01T04:19:05;23.60;80.90
44182;DHT22;30436;48.888;9.202;2022-08-01T04:21:34;23.70;80.90
44182;DHT22;30436;48.888;9.202;2022-08-01T04:24:08;23.60;80.20
44182;DHT22;30436;48.888;9.202;2022-08-01T04:26:37;23.70;80.90
44182;DHT22;30436;48.888;9.202;2022-08-01T04:29:05;23.60;80.10
44182;DHT22;30436;48.888;9.202;2022-08-01T04:31:31;23.50;81.90
44182;DHT22;30436;48.888;9.202;2022-08-01T04:33:59;23.70;82.40
44182;DHT22;30436;48.888;9.202;2022-08-01T04:36:28;23.70;81.80
44182;DHT22;30436;48.888;9.202;2022-08-01T04:38:59;23.70;83.80
44182;DHT22;30436;48.888;9.202;2022-08-01T04:41:25;23.80;83.20
44182;DHT22;30436;48.888;9.202;2022-08-01T04:43:52;24.00;83.50
44182;DHT22;30436;48.888;9.202;2022-08-01T04:46:18;23.90;83.00
44182;DHT22;30436;48.888;9.202;2022-08-01T04:48:45;23.90;82.80
44182;DHT22;30436;48.888;9.202;2022-08-01T04:51:13;23.80;82.20
44182;DHT22;30436;48.888;9.202;2022-08-01T04:53:41;23.80;83.00
44182;DHT22;30436;48.888;9.202;2022-08-01T04:56:06;23.70;83.50
44182;DHT22;30436;48.888;9.202;2022-08-01T04:58:32;23.70;85.30
44182;DHT22;30436;48.888;9.202;2022-08-01T05:00:58;23.80;83.90
44182;DHT22;30436;48.888;9.202;2022-08-01T05:03:24;23.90;83.50
44182;DHT22;30436;48.888;9.202;2022-08-01T05:05:49;23.70;84.20
44182;DHT22;30436;48.888;9.202;2022-08-01T05:08:15;23.80;84.00
44182;DHT22;30436;48.888;9.202;2022-08-01T05:10:41;23.80;83.80
44182;DHT22;30436;48.888;9.202;2022-08-01T05:13:08;23.90;85.40
44182;DHT22;30436;48.888;9.202;2022-08-01T05:15:37;23.90;84.70
44182;DHT22;30436;48.888;9.202;2022-08-01T05:18:03;24.00;84.40
44182;DHT22;30436;48.888;9.202;2022-08-01T05:20:29;23.80;83.60
44182;DHT22;30436;48.888;9.202;2022-08-01T05:22:54;23.80;86.50
44182;DHT22;30436;48.888;9.202;2022-08-01T05:25:20;23.80;86.30
44182;DHT22;30436;48.888;9.202;2022-08-01T05:27:46;23.90;86.90
44182;DHT22;30436;48.888;9.202;2022-08-01T05:30:12;24.00;88.90
44182;DHT22;30436;48.888;9.202;2022-08-01T05:32:38;24.10;86.30
44182;DHT22;30436;48.888;9.202;2022-08-01T05:35:04;24.20;86.40
44182;DHT22;30436;48.888;9.202;2022-08-01T05:37:31;24.20;85.80
44182;DHT22;30436;48.888;9.202;2022-08-01T05:39:56;24.20;85.70
44182;DHT22;30436;48.888;9.202;2022-08-01T05:42:22;24.20;90.00
44182;DHT22;30436;48.888;9.202;2022-08-01T05:44:48;24.20;88.70
44182;DHT22;30436;48.888;9.202;2022-08-01T05:47:13;24.20;86.90
44182;DHT22;30436;48.888;9.202;2022-08-01T05:49:39;24.20;86.40
44182;DHT22;30436;48.888;9.202;2022-08-01T05:52:05;24.20;87.90
44182;DHT22;30436;48.888;9.202;2022-08-01T05:54:31;24.30;85.70
44182;DHT22;30436;48.888;9.202;2022-08-01T05:56:56;24.40;84.40
44182;DHT22;30436;48.888;9.202;2022-08-01T05:59:25;24.40;85.40
44182;DHT22;30436;48.888;9.202;2022-08-01T06:01:51;24.50;86.10
44182;DHT22;30436;48.888;9.202;2022-08-01T06:04:17;24.50;86.90
44182;DHT22;30436;48.888;9.202;2022-08-01T06:06:43;24.30;86.30
44182;DHT22;30436;48.888;9.202;2022-08-01T06:09:08;24.50;87.10
44182;DHT22;30436;48.888;9.202;2022-08-01T06:11:34;24.70;87.40
44182;DHT22;30436;48.888;9.202;2022-08-01T06:14:00;24.70;85.70
44182;DHT22;30436;48.888;9.202;2022-08-01T06:16:25;24.70;87.40
44182;DHT22;30436;48.888;9.202;2022-08-01T06:18:51;24.80;85.70
44182;DHT22;30436;48.888;9.202;2022-08-01T06:21:17;25.00;87.30
44182;DHT22;30436;48.888;9.202;2022-08-01T06:23:42;24.80;85.20
44182;DHT22;30436;48.888;9.202;2022-08-01T06:26:09;24.90;87.70
44182;DHT22;30436;48.888;9.202;2022-08-01T06:28:35;25.00;86.40
44182;DHT22;30436;48.888;9.202;2022-08-01T06:31:01;25.00;86.20
44182;DHT22;30436;48.888;9.202;2022-08-01T06:33:27;25.00;85.90
44182;DHT22;30436;48.888;9.202;2022-08-01T06:35:53;25.00;86.40
44182;DHT22;30436;48.888;9.202;2022-08-01T06:38:19;25.20;86.80
44182;DHT22;30436;48.888;9.202;2022-08-01T06:40:44;25.30;86.00
44182;DHT22;30436;48.888;9.202;2022-08-01T06:43:10;25.40;86.30
44182;DHT22;30436;48.888;9.202;2022-08-01T06:45:40;25.50;86.20
44182;DHT22;30436;48.888;9.202;2022-08-01T06:48:05;25.60;85.90
44182;DHT22;30436;48.888;9.202;2022-08-01T06:50:31;25.60;84.80
44182;DHT22;30436;48.888;9.202;2022-08-01T06:52:57;25.70;85.40
44182;DHT22;30436;48.888;9.202;2022-08-01T06:55:23;25.80;84.00
44182;DHT22;30436;48.888;9.202;2022-08-01T06:57:51;25.70;84.00
44182;DHT22;30436;48.888;9.202;2022-08-01T07:00:20;25.80;84.90
44182;DHT22;30436;48.888;9.202;2022-08-01T07:02:51;25.90;84.20
44182;DHT22;30436;48.888;9.202;2022-08-01T07:05:18;26.00;83.80
44182;DHT22;30436;48.888;9.202;2022-08-01T07:07:43;26.20;84.00
44182;DHT22;30436;48.888;9.202;2022-08-01T07:10:09;26.40;84.10
44182;DHT22;30436;48.888;9.202;2022-08-01T07:12:35;26.50;82.20
44182;DHT22;30436;48.888;9.202;2022-08-01T07:15:07;26.50;82.40
44182;DHT22;30436;48.888;9.202;2022-08-01T07:17:40;26.60;83.30
44182;DHT22;30436;48.888;9.202;2022-08-01T07:20:07;26.70;82.40
44182;DHT22;30436;48.888;9.202;2022-08-01T07:22:33;26.60;81.30
44182;DHT22;30436;48.888;9.202;2022-08-01T07:24:59;26.50;78.80
44182;DHT22;30436;48.888;9.202;2022-08-01T07:27:24;26.40;82.60
44182;DHT22;30436;48.888;9.202;2022-08-01T07:29:50;26.70;81.60
44182;DHT22;30436;48.888;9.202;2022-08-01T07:32:16;26.70;82.00
44182;DHT22;30436;48.888;9.202;2022-08-01T07:34:41;26.70;80.90
44182;DHT22;30436;48.888;9.202;2022-08-01T07:37:07;26.80;81.40
44182;DHT22;30436;48.888;9.202;2022-08-01T07:39:32;26.70;81.30
44182;DHT22;30436;48.888;9.202;2022-08-01T07:41:58;26.50;79.40
44182;DHT22;30436;48.888;9.202;2022-08-01T07:44:24;26.50;80.10
44182;DHT22;30436;48.888;9.202;2022-08-01T07:46:49;26.70;80.50
44182;DHT22;30436;48.888;9.202;2022-08-01T07:49:15;26.60;80.20
44182;DHT22;30436;48.888;9.202;2022-08-01T07:51:41;26.70;81.90
44182;DHT22;30436;48.888;9.202;2022-08-01T07:54:06;26.90;81.90
44182;DHT22;30436;48.888;9.202;2022-08-01T07:56:33;26.80;80.70
44182;DHT22;30436;48.888;9.202;2022-08-01T07:58:58;26.90;81.70
44182;DHT22;30436;48.888;9.202;2022-08-01T08:01:24;27.00;80.50
44182;DHT22;30436;48.888;9.202;2022-08-01T08:03:49;27.00;80.00
44182;DHT22;30436;48.888;9.202;2022-08-01T08:06:15;27.10;80.00
44182;DHT22;30436;48.888;9.202;2022-08-01T08:08:41;27.20;80.70
44182;DHT22;30436;48.888;9.202;2022-08-01T08:11:06;27.10;80.10
44182;DHT22;30436;48.888;9.202;2022-08-01T08:13:32;27.10;80.20
44182;DHT22;30436;48.888;9.202;2022-08-01T08:15:58;27.20;79.40
44182;DHT22;30436;48.888;9.202;2022-08-01T08:18:25;27.10;78.80
44182;DHT22;30436;48.888;9.202;2022-08-01T08:20:51;27.10;78.80
44182;DHT22;30436;48.888;9.202;2022-08-01T08:23:16;27.30;79.80
44182;DHT22;30436;48.888;9.202;2022-08-01T08:26:00;27.40;78.00
44182;DHT22;30436;48.888;9.202;2022-08-01T08:28:26;27.50;77.00
44182;DHT22;30436;48.888;9.202;2022-08-01T08:30:52;27.40;75.40
44182;DHT22;30436;48.888;9.202;2022-08-01T08:33:20;27.40;77.20
44182;DHT22;30436;48.888;9.202;2022-08-01T08:35:46;27.30;75.30
44182;DHT22;30436;48.888;9.202;2022-08-01T08:38:15;27.30;77.60
44182;DHT22;30436;48.888;9.202;2022-08-01T08:40:40;27.30;77.20
44182;DHT22;30436;48.888;9.202;2022-08-01T08:43:06;27.30;77.60
44182;DHT22;30436;48.888;9.202;2022-08-01T08:45:33;27.30;77.60
44182;DHT22;30436;48.888;9.202;2022-08-01T08:47:59;27.40;77.40
44182;DHT22;30436;48.888;9.202;2022-08-01T08:50:28;27.40;77.80
44182;DHT22;30436;48.888;9.202;2022-08-01T08:52:55;27.60;77.00
44182;DHT22;30436;48.888;9.202;2022-08-01T08:55:22;27.70;75.50
44182;DHT22;30436;48.888;9.202;2022-08-01T08:57:48;27.70;78.50
44182;DHT22;30436;48.888;9.202;2022-08-01T09:00:15;27.70;76.80
44182;DHT22;30436;48.888;9.202;2022-08-01T09:02:42;27.70;77.00
44182;DHT22;30436;48.888;9.202;2022-08-01T09:05:10;28.00;75.80
44182;DHT22;30436;48.888;9.202;2022-08-01T09:07:36;28.00;76.40
44182;DHT22;30436;48.888;9.202;2022-08-01T09:10:02;28.00;76.00
44182;DHT22;30436;48.888;9.202;2022-08-01T09:12:28;28.00;75.50
44182;DHT22;30436;48.888;9.202;2022-08-01T09:14:54;28.00;75.00
44182;DHT22;30436;48.888;9.202;2022-08-01T09:17:20;27.90;75.90
44182;DHT22;30436;48.888;9.202;2022-08-01T09:19:51;27.90;77.40
44182;DHT22;30436;48.888;9.202;2022-08-01T09:22:19;27.80;76.20
44182;DHT22;30436;48.888;9.202;2022-08-01T09:25:09;27.90;76.90
44182;DHT22;30436;48.888;9.202;2022-08-01T09:27:37;28.20;77.40
44182;DHT22;30436;48.888;9.202;2022-08-01T09:30:14;28.40;76.40
44182;DHT22;30436;48.888;9.202;2022-08-01T09:32:57;28.60;74.90
44182;DHT22;30436;48.888;9.202;2022-08-01T09:35:30;28.70;73.00
44182;DHT22;30436;48.888;9.202;2022-08-01T09:38:14;28.90;72.20
44182;DHT22;30436;48.888;9.202;2022-08-01T09:40:53;29.00;73.60
44182;DHT22;30436;48.888;9.202;2022-08-01T09:43:21;29.10;72.30
44182;DHT22;30436;48.888;9.202;2022-08-01T09:45:47;29.10;72.30
44182;DHT22;30436;48.888;9.202;2022-08-01T09:48:13;29.30;72.90
44182;DHT22;30436;48.888;9.202;2022-08-01T09:50:51;29.00;70.20
44182;DHT22;30436;48.888;9.202;2022-08-01T09:53:18;29.20;72.80
44182;DHT22;30436;48.888;9.202;2022-08-01T09:55:44;29.20;72.20
44182;DHT22;30436;48.888;9.202;2022-08-01T09:58:10;29.20;70.70
44182;DHT22;30436;48.888;9.202;2022-08-01T10:00:38;29.20;71.10
44182;DHT22;30436;48.888;9.202;2022-08-01T10:03:23;29.40;71.00
44182;DHT22;30436;48.888;9.202;2022-08-01T10:05:50;29.50;70.00
44182;DHT22;30436;48.888;9.202;2022-08-01T10:08:17;29.70;70.40
44182;DHT22;30436;48.888;9.202;2022-08-01T10:13:32;30.10;69.10
44182;DHT22;30436;48.888;9.202;2022-08-01T10:15:59;30.30;68.40
44182;DHT22;30436;48.888;9.202;2022-08-01T10:18:26;30.40;68.10
44182;DHT22;30436;48.888;9.202;2022-08-01T10:20:54;30.60;68.50
44182;DHT22;30436;48.888;9.202;2022-08-01T10:23:20;30.60;66.50
44182;DHT22;30436;48.888;9.202;2022-08-01T10:25:47;30.80;64.20
44182;DHT22;30436;48.888;9.202;2022-08-01T10:28:15;30.90;65.30
44182;DHT22;30436;48.888;9.202;2022-08-01T10:30:42;31.00;64.70
44182;DHT22;30436;48.888;9.202;2022-08-01T10:33:10;31.00;64.10
44182;DHT22;30436;48.888;9.202;2022-08-01T10:35:37;31.10;64.00
44182;DHT22;30436;48.888;9.202;2022-08-01T10:38:03;31.20;64.40
44182;DHT22;30436;48.888;9.202;2022-08-01T10:40:30;31.40;63.40
44182;DHT22;30436;48.888;9.202;2022-08-01T10:42:56;31.40;63.00
44182;DHT22;30436;48.888;9.202;2022-08-01T10:45:22;31.40;62.10
44182;DHT22;30436;48.888;9.202;2022-08-01T10:47:57;31.30;62.00
44182;DHT22;30436;48.888;9.202;2022-08-01T10:50:39;31.40;63.60
44182;DHT22;30436;48.888;9.202;2022-08-01T10:53:22;31.40;62.20
44182;DHT22;30436;48.888;9.202;2022-08-01T10:58:35;31.40;62.50
44182;DHT22;30436;48.888;9.202;2022-08-01T11:04:12;31.40;60.90
44182;DHT22;30436;48.888;9.202;2022-08-01T11:06:41;31.40;60.80
44182;DHT22;30436;48.888;9.202;2022-08-01T11:14:24;31.70;60.60
44182;DHT22;30436;48.888;9.202;2022-08-01T11:16:50;32.00;60.60
44182;DHT22;30436;48.888;9.202;2022-08-01T11:19:16;32.20;60.40
44182;DHT22;30436;48.888;9.202;2022-08-01T11:27:31;32.30;59.00
44182;DHT22;30436;48.888;9.202;2022-08-01T11:30:23;32.40;59.10
44182;DHT22;30436;48.888;9.202;2022-08-01T11:32:54;32.60;60.20
44182;DHT22;30436;48.888;9.202;2022-08-01T11:35:24;32.60;58.20
44182;DHT22;30436;48.888;9.202;2022-08-01T11:37:53;32.80;59.10
44182;DHT22;30436;48.888;9.202;2022-08-01T11:40:26;32.90;58.60
44182;DHT22;30436;48.888;9.202;2022-08-01T11:45:55;33.10;58.20
44182;DHT22;30436;48.888;9.202;2022-08-01T11:48:25;33.20;57.30
44182;DHT22;30436;48.888;9.202;2022-08-01T11:50:52;33.10;57.50
44182;DHT22;30436;48.888;9.202;2022-08-01T11:53:18;32.80;57.10
44182;DHT22;30436;48.888;9.202;2022-08-01T11:55:49;33.00;56.70
44182;DHT22;30436;48.888;9.202;2022-08-01T11:58:20;33.00;56.00
44182;DHT22;30436;48.888;9.202;2022-08-01T12:00:53;33.10;57.20
44182;DHT22;30436;48.888;9.202;2022-08-01T12:03:25;32.90;56.80
44182;DHT22;30436;48.888;9.202;2022-08-01T12:05:53;32.90;57.60
44182;DHT22;30436;48.888;9.202;2022-08-01T12:08:30;33.10;58.60
44182;DHT22;30436;48.888;9.202;2022-08-01T12:11:00;33.20;57.30
44182;DHT22;30436;48.888;9.202;2022-08-01T12:13:26;33.10;56.70
44182;DHT22;30436;48.888;9.202;2022-08-01T12:15:52;33.00;57.10
44182;DHT22;30436;48.888;9.202;2022-08-01T12:18:18;32.90;57.10
44182;DHT22;30436;48.888;9.202;2022-08-01T12:20:45;32.90;57.80
44182;DHT22;30436;48.888;9.202;2022-08-01T12:23:13;33.00;57.70
44182;DHT22;30436;48.888;9.202;2022-08-01T12:25:39;32.90;56.80
44182;DHT22;30436;48.888;9.202;2022-08-01T12:28:07;33.00;57.10
44182;DHT22;30436;48.888;9.202;2022-08-01T12:30:34;33.00;57.90
44182;DHT22;30436;48.888;9.202;2022-08-01T12:33:01;33.10;57.00
44182;DHT22;30436;48.888;9.202;2022-08-01T12:35:29;33.10;56.70
44182;DHT22;30436;48.888;9.202;2022-08-01T12:38:03;32.90;56.40
44182;DHT22;30436;48.888;9.202;2022-08-01T12:40:35;32.70;57.10
44182;DHT22;30436;48.888;9.202;2022-08-01T12:43:03;32.70;58.10
44182;DHT22;30436;48.888;9.202;2022-08-01T12:45:38;32.70;58.40
44182;DHT22;30436;48.888;9.202;2022-08-01T12:48:12;32.70;57.40
44182;DHT22;30436;48.888;9.202;2022-08-01T12:50:40;33.00;57.80
44182;DHT22;30436;48.888;9.202;2022-08-01T12:53:08;33.30;56.30
44182;DHT22;30436;48.888;9.202;2022-08-01T12:55:47;33.30;55.90
44182;DHT22;30436;48.888;9.202;2022-08-01T12:58:15;33.50;55.70
44182;DHT22;30436;48.888;9.202;2022-08-01T13:00:44;33.40;55.30
44182;DHT22;30436;48.888;9.202;2022-08-01T13:03:15;33.30;55.80
44182;DHT22;30436;48.888;9.202;2022-08-01T13:08:34;33.20;56.80
44182;DHT22;30436;48.888;9.202;2022-08-01T13:11:05;33.40;56.40
44182;DHT22;30436;48.888;9.202;2022-08-01T13:13:49;33.40;56.30
44182;DHT22;30436;48.888;9.202;2022-08-01T13:16:23;33.20;55.90
44182;DHT22;30436;48.888;9.202;2022-08-01T13:18:51;33.10;56.30
44182;DHT22;30436;48.888;9.202;2022-08-01T13:21:26;33.10;56.80
44182;DHT22;30436;48.888;9.202;2022-08-01T13:24:08;32.70;55.20
44182;DHT22;30436;48.888;9.202;2022-08-01T13:29:16;32.90;56.60
44182;DHT22;30436;48.888;9.202;2022-08-01T13:31:42;32.90;57.40
44182;DHT22;30436;48.888;9.202;2022-08-01T13:34:08;33.10;56.70
44182;DHT22;30436;48.888;9.202;2022-08-01T13:36:35;33.00;56.70
44182;DHT22;30436;48.888;9.202;2022-08-01T13:39:01;32.80;56.50
44182;DHT22;30436;48.888;9.202;2022-08-01T13:41:46;32.70;57.70
44182;DHT22;30436;48.888;9.202;2022-08-01T13:44:13;32.70;57.40
44182;DHT22;30436;48.888;9.202;2022-08-01T13:46:40;32.60;56.60
44182;DHT22;30436;48.888;9.202;2022-08-01T13:49:09;32.60;56.90
44182;DHT22;30436;48.888;9.202;2022-08-01T13:51:35;32.90;57.20
44182;DHT22;30436;48.888;9.202;2022-08-01T13:54:03;33.00;57.00
44182;DHT22;30436;48.888;9.202;2022-08-01T13:56:28;33.10;56.30
44182;DHT22;30436;48.888;9.202;2022-08-01T13:58:55;33.20;56.70
44182;DHT22;30436;48.888;9.202;2022-08-01T14:01:21;33.30;55.90
44182;DHT22;30436;48.888;9.202;2022-08-01T14:03:48;33.40;55.80
44182;DHT22;30436;48.888;9.202;2022-08-01T14:06:14;33.50;56.00
44182;DHT22;30436;48.888;9.202;2022-08-01T14:08:42;33.60;56.70
44182;DHT22;30436;48.888;9.202;2022-08-01T14:11:08;33.40;56.10
44182;DHT22;30436;48.888;9.202;2022-08-01T14:13:34;33.10;55.80
44182;DHT22;30436;48.888;9.202;2022-08-01T14:15:59;33.10;56.80
44182;DHT22;30436;48.888;9.202;2022-08-01T14:18:26;33.00;56.70
44182;DHT22;30436;48.888;9.202;2022-08-01T14:20:52;33.00;56.60
44182;DHT22;30436;48.888;9.202;2022-08-01T14:23:17;32.90;57.10
44182;DHT22;30436;48.888;9.202;2022-08-01T14:25:43;32.80;56.00
44182;DHT22;30436;48.888;9.202;2022-08-01T14:28:09;32.80;58.10
44182;DHT22;30436;48.888;9.202;2022-08-01T14:30:35;32.90;56.90
44182;DHT22;30436;48.888;9.202;2022-08-01T14:33:01;32.90;56.40
44182;DHT22;30436;48.888;9.202;2022-08-01T14:35:27;33.00;56.80
44182;DHT22;30436;48.888;9.202;2022-08-01T14:37:53;32.90;56.90
44182;DHT22;30436;48.888;9.202;2022-08-01T14:40:18;32.80;57.00
44182;DHT22;30436;48.888;9.202;2022-08-01T14:42:44;32.70;57.70
44182;DHT22;30436;48.888;9.202;2022-08-01T14:45:11;32.70;57.40
44182;DHT22;30436;48.888;9.202;2022-08-01T14:47:39;32.60;56.50
44182;DHT22;30436;48.888;9.202;2022-08-01T14:50:07;32.60;57.00
44182;DHT22;30436;48.888;9.202;2022-08-01T14:52:34;32.60;57.50
44182;DHT22;30436;48.888;9.202;2022-08-01T14:55:00;32.50;57.10
44182;DHT22;30436;48.888;9.202;2022-08-01T14:57:26;32.30;57.90
44182;DHT22;30436;48.888;9.202;2022-08-01T14:59:51;32.30;57.80
44182;DHT22;30436;48.888;9.202;2022-08-01T15:02:17;32.30;57.70
44182;DHT22;30436;48.888;9.202;2022-08-01T15:04:45;32.40;58.00
44182;DHT22;30436;48.888;9.202;2022-08-01T15:07:11;32.60;57.30
44182;DHT22;30436;48.888;9.202;2022-08-01T15:09:37;32.50;56.90
44182;DHT22;30436;48.888;9.202;2022-08-01T15:12:03;32.40;56.70
44182;DHT22;30436;48.888;9.202;2022-08-01T15:14:28;32.30;57.10
44182;DHT22;30436;48.888;9.202;2022-08-01T15:17:14;32.20;56.70
44182;DHT22;30436;48.888;9.202;2022-08-01T15:19:40;32.10;56.60
44182;DHT22;30436;48.888;9.202;2022-08-01T15:22:05;32.10;56.60
44182;DHT22;30436;48.888;9.202;2022-08-01T15:24:31;32.10;56.50
44182;DHT22;30436;48.888;9.202;2022-08-01T15:26:57;32.10;56.90
44182;DHT22;30436;48.888;9.202;2022-08-01T15:29:22;32.00;56.70
44182;DHT22;30436;48.888;9.202;2022-08-01T15:31:48;31.90;56.70
44182;DHT22;30436;48.888;9.202;2022-08-01T15:34:14;31.80;56.90
44182;DHT22;30436;48.888;9.202;2022-08-01T15:36:40;31.70;57.40
44182;DHT22;30436;48.888;9.202;2022-08-01T15:39:08;31.70;57.70
44182;DHT22;30436;48.888;9.202;2022-08-01T15:41:34;31.70;57.00
44182;DHT22;30436;48.888;9.202;2022-08-01T15:44:00;31.60;56.60
44182;DHT22;30436;48.888;9.202;2022-08-01T15:46:25;31.40;57.10
44182;DHT22;30436;48.888;9.202;2022-08-01T15:48:51;31.40;56.90
44182;DHT22;30436;48.888;9.202;2022-08-01T15:51:16;31.40;58.20
44182;DHT22;30436;48.888;9.202;2022-08-01T15:53:42;31.40;57.40
44182;DHT22;30436;48.888;9.202;2022-08-01T15:56:09;31.30;57.60
44182;DHT22;30436;48.888;9.202;2022-08-01T15:58:35;31.10;57.30
44182;DHT22;30436;48.888;9.202;2022-08-01T16:01:00;31.10;57.60
44182;DHT22;30436;48.888;9.202;2022-08-01T16:03:26;30.90;57.60
44182;DHT22;30436;48.888;9.202;2022-08-01T16:05:56;30.90;58.70
44182;DHT22;30436;48.888;9.202;2022-08-01T16:08:22;31.00;59.90
44182;DHT22;30436;48.888;9.202;2022-08-01T16:10:48;30.90;58.60
44182;DHT22;30436;48.888;9.202;2022-08-01T16:13:14;30.90;58.30
44182;DHT22;30436;48.888;9.202;2022-08-01T16:15:40;30.90;59.00
44182;DHT22;30436;48.888;9.202;2022-08-01T16:18:07;30.80;58.70
44182;DHT22;30436;48.888;9.202;2022-08-01T16:20:33;30.70;58.80
44182;DHT22;30436;48.888;9.202;2022-08-01T16:22:59;30.80;58.30